createdAt,value
2022-11-02T00:01:03.026Z,8.2
2022-11-02T00:05:45.330Z,8.2
2022-11-02T00:10:27.566Z,8.3
2022-11-02T00:15:09.945Z,8.1
2022-11-02T00:19:52.199Z,8
2022-11-02T00:24:34.371Z,8.1
2022-11-02T00:29:15.780Z,8.2
2022-11-02T00:33:57.989Z,8.3
2022-11-02T00:38:40.316Z,8.4
2022-11-02T00:43:22.531Z,8.3
2022-11-02T00:48:04.827Z,8.1
2022-11-02T00:52:47.134Z,8.4
2022-11-02T00:57:29.355Z,8.5
2022-11-02T01:02:11.659Z,8.4
2022-11-02T01:06:53.966Z,8.2
2022-11-02T01:11:36.186Z,7.9
2022-11-02T01:16:18.513Z,8.1
2022-11-02T01:21:00.836Z,8.1
2022-11-02T01:25:43.013Z,8.1
2022-11-02T01:30:24.384Z,8.2
2022-11-02T01:35:06.636Z,8.3
2022-11-02T01:39:48.946Z,8.1
2022-11-02T01:44:31.182Z,8.3
2022-11-02T01:49:13.468Z,8.1
2022-11-02T01:53:55.773Z,8
2022-11-02T01:58:38.125Z,7.8
2022-11-02T02:03:20.316Z,7.8
2022-11-02T02:08:02.638Z,7.9
2022-11-02T02:12:44.929Z,8
2022-11-02T02:17:27.129Z,8
2022-11-02T02:22:09.494Z,8
2022-11-02T02:26:51.809Z,8
2022-11-02T02:31:33.056Z,7.9
2022-11-02T02:36:15.287Z,7.7
2022-11-02T02:40:57.583Z,7.9
2022-11-02T02:45:39.899Z,8
2022-11-02T02:50:22.105Z,7.9
2022-11-02T02:55:04.425Z,7.7
2022-11-02T02:59:46.730Z,7.6
2022-11-02T03:04:29.042Z,7.5
2022-11-02T03:09:11.251Z,7.8
2022-11-02T03:13:53.559Z,8.2
2022-11-02T03:18:35.866Z,8.2
2022-11-02T03:23:18.079Z,8.3
2022-11-02T03:28:00.417Z,8.2
2022-11-02T03:32:41.706Z,8.4
2022-11-02T03:37:24.035Z,8.4
2022-11-02T03:42:06.220Z,8.4
2022-11-02T03:46:48.640Z,8.3
2022-11-02T03:51:30.875Z,8
2022-11-02T03:56:13.054Z,8.1
2022-11-02T04:00:55.371Z,8
2022-11-02T04:05:37.685Z,7.8
2022-11-02T04:10:19.925Z,7.7
2022-11-02T04:15:02.221Z,7.5
2022-11-02T04:19:44.507Z,7.6
2022-11-02T04:24:26.716Z,7.2
2022-11-02T04:29:09.095Z,7.2
2022-11-02T04:33:50.351Z,7.2
2022-11-02T04:38:32.696Z,7.4
2022-11-02T04:43:14.917Z,7.5
2022-11-02T04:47:57.207Z,7.4
2022-11-02T04:52:39.483Z,7.4
2022-11-02T04:57:21.795Z,6.9
2022-11-02T05:02:04.004Z,7
2022-11-02T05:06:46.359Z,7.1
2022-11-02T05:11:28.664Z,7
2022-11-02T05:20:53.151Z,7.1
2022-11-02T05:25:35.457Z,6.9
2022-11-02T05:30:17.727Z,6.7
2022-11-02T05:34:58.984Z,6.5
2022-11-02T05:39:41.303Z,6.6
2022-11-02T05:44:23.601Z,6.4
2022-11-02T05:49:05.816Z,6.5
2022-11-02T05:53:48.169Z,6.5
2022-11-02T05:58:30.443Z,6.2
2022-11-02T06:03:12.665Z,6.5
2022-11-02T06:07:55.004Z,6.6
2022-11-02T06:12:37.272Z,6.5
2022-11-02T06:17:19.578Z,6.5
2022-11-02T06:22:01.791Z,6.4
2022-11-02T06:26:44.105Z,6.4
2022-11-02T06:31:26.429Z,6.6
2022-11-02T06:36:07.723Z,6.6
2022-11-02T06:40:49.936Z,6.9
2022-11-02T06:45:32.245Z,7
2022-11-02T06:50:14.560Z,6.8
2022-11-02T06:54:56.766Z,7.2
2022-11-02T06:59:39.166Z,7.4
2022-11-02T07:04:21.384Z,7.8
2022-11-02T07:09:03.651Z,8
2022-11-02T07:13:45.974Z,8.7
2022-11-02T07:18:28.225Z,8.8
2022-11-02T07:23:10.456Z,9.2
2022-11-02T07:27:52.747Z,9.2
2022-11-02T07:32:35.062Z,9.4
2022-11-02T07:37:16.365Z,9.6
2022-11-02T07:41:58.578Z,10
2022-11-02T07:46:40.919Z,10.2
2022-11-02T07:51:23.198Z,10.7
2022-11-02T07:56:05.412Z,10.9
2022-11-02T08:00:47.805Z,11.1
2022-11-02T08:05:30.078Z,11.5
2022-11-02T08:10:12.273Z,11.8
2022-11-02T08:14:54.607Z,12.1
2022-11-02T08:19:36.871Z,12.4
2022-11-02T08:24:19.179Z,12.3
2022-11-02T08:29:01.391Z,12.3
2022-11-02T08:33:43.700Z,11.9
2022-11-02T08:38:25.030Z,12.2
2022-11-02T08:43:07.228Z,13.5
2022-11-02T08:47:49.547Z,13.7
2022-11-02T08:52:31.874Z,14.1
2022-11-02T08:57:14.068Z,13.9
2022-11-02T09:01:56.450Z,13.3
2022-11-02T09:06:38.678Z,13.7
2022-11-02T09:11:20.940Z,13.5
2022-11-02T09:16:03.322Z,13.3
2022-11-02T09:20:45.561Z,13.7
2022-11-02T09:25:27.828Z,13.6
2022-11-02T09:30:10.139Z,13.7
2022-11-02T09:34:52.395Z,13.6
2022-11-02T09:39:33.731Z,13.5
2022-11-02T09:44:15.928Z,13.6
2022-11-02T09:48:58.269Z,13.5
2022-11-02T09:53:40.525Z,13.4
2022-11-02T09:58:22.731Z,13.3
2022-11-02T10:03:05.029Z,13.2
2022-11-02T10:07:47.326Z,13.2
2022-11-02T10:12:29.550Z,13.3
2022-11-02T10:17:11.847Z,13.5
2022-11-02T10:26:36.544Z,13.7
2022-11-02T10:31:18.678Z,13.8
2022-11-02T10:36:01.015Z,14.2
2022-11-02T10:40:42.301Z,14.6
2022-11-02T10:45:24.549Z,15
2022-11-02T10:50:06.865Z,17.4
2022-11-02T10:54:49.156Z,17.2
2022-11-02T10:59:31.345Z,14.8
2022-11-02T11:04:13.761Z,15
2022-11-02T11:08:56.006Z,15
2022-11-02T11:18:20.484Z,14.7
2022-11-02T11:23:02.856Z,14.4
2022-11-02T11:27:45.055Z,14.2
2022-11-02T11:32:27.425Z,14.4
2022-11-02T11:37:09.689Z,14.3
2022-11-02T11:41:50.946Z,14.4
2022-11-02T11:46:33.155Z,14.2
2022-11-02T11:51:15.466Z,14.2
2022-11-02T11:55:57.795Z,14.3
2022-11-02T12:00:39.989Z,14.3
2022-11-02T12:05:22.324Z,14.8
2022-11-02T12:14:46.826Z,14.3
2022-11-02T12:24:11.477Z,14.8
2022-11-02T12:28:52.851Z,15.8
2022-11-02T12:33:34.067Z,15
2022-11-02T12:38:16.307Z,14.5
2022-11-02T12:42:58.590Z,14.9
2022-11-02T12:52:23.116Z,17.1
2022-11-02T12:57:05.426Z,18.1
2022-11-02T13:01:47.738Z,17.5
2022-11-02T13:06:29.945Z,16.4
2022-11-02T13:11:12.273Z,16
2022-11-02T13:15:54.603Z,15.2
2022-11-02T13:20:36.779Z,15.4
2022-11-02T13:25:19.097Z,18
2022-11-02T13:30:01.450Z,20.1
2022-11-02T13:34:42.708Z,19.2
2022-11-02T13:39:24.924Z,21.5
2022-11-02T13:48:49.544Z,20.6
2022-11-02T13:53:30.866Z,20.8
2022-11-02T13:58:13.066Z,21.2
2022-11-02T14:02:54.382Z,17.8
2022-11-02T14:07:36.704Z,19.8
2022-11-02T14:12:17.997Z,17.8
2022-11-02T14:17:00.212Z,18.8
2022-11-02T14:26:24.840Z,20.3
2022-11-02T14:35:49.389Z,17.7
2022-11-02T14:45:13.912Z,16.5
2022-11-02T14:49:56.215Z,16.2
2022-11-02T14:54:38.607Z,16.1
2022-11-02T14:59:20.721Z,15.6
2022-11-02T15:04:03.043Z,14.8
2022-11-02T15:08:45.356Z,14.5
2022-11-02T15:13:26.650Z,14.2
2022-11-02T15:18:08.885Z,14
2022-11-02T15:22:51.301Z,13.8
2022-11-02T15:27:33.484Z,13.6
2022-11-02T15:36:58.013Z,13.2
2022-11-02T15:41:40.457Z,12.7
2022-11-02T15:46:22.533Z,12.6
2022-11-02T15:51:04.890Z,12.3
2022-11-02T15:55:47.150Z,12.2
2022-11-02T16:00:29.363Z,12
2022-11-02T16:05:11.678Z,11.9
2022-11-02T16:09:53.993Z,11.5
2022-11-02T16:14:35.328Z,11.1
2022-11-02T16:19:17.511Z,10.7
2022-11-02T16:23:58.814Z,10.5
2022-11-02T16:28:40.124Z,10.5
2022-11-02T16:33:22.483Z,10.3
2022-11-02T16:38:04.745Z,10.3
2022-11-02T16:42:46.953Z,10.1
2022-11-02T16:47:29.261Z,9.9
2022-11-02T16:52:11.580Z,9.9
2022-11-02T16:56:53.786Z,9.6
2022-11-02T17:01:36.096Z,9.5
2022-11-02T17:06:18.508Z,9.3
2022-11-02T17:11:00.619Z,9.3
2022-11-02T17:15:41.927Z,8.9
2022-11-02T17:20:23.234Z,8.8
2022-11-02T17:25:05.566Z,8.5
2022-11-02T17:29:47.857Z,8.1
2022-11-02T17:34:30.071Z,8.3
2022-11-02T17:39:12.400Z,8
2022-11-02T17:43:54.722Z,7.7
2022-11-02T17:48:37.006Z,7.7
2022-11-02T17:53:19.211Z,7.7
2022-11-02T17:58:01.541Z,7.8
2022-11-02T18:02:43.833Z,7.9
2022-11-02T18:07:26.046Z,7.8
2022-11-02T18:12:08.357Z,7.7
2022-11-02T18:16:50.664Z,7.6
2022-11-02T18:21:31.972Z,7.5
2022-11-02T18:26:14.191Z,7.5
2022-11-02T18:30:56.496Z,7.2
2022-11-02T18:40:21.017Z,7.1
2022-11-02T18:49:45.639Z,6.8
2022-11-02T18:54:26.948Z,6.7
2022-11-02T18:59:08.310Z,6.7
2022-11-02T19:03:50.464Z,6.7
2022-11-02T19:08:32.778Z,6.6
2022-11-02T19:13:15.103Z,6.1
2022-11-02T19:17:57.304Z,6.2
2022-11-02T19:22:39.613Z,6
2022-11-02T19:27:21.928Z,5.9
2022-11-02T19:32:04.249Z,6
2022-11-02T19:36:46.442Z,5.8
2022-11-02T19:41:28.757Z,5.5
2022-11-02T19:46:10.068Z,5.3
2022-11-02T19:50:51.374Z,5.3
2022-11-02T19:55:33.695Z,5.6
2022-11-02T20:00:15.898Z,5.6
2022-11-02T20:04:58.206Z,5.5
2022-11-02T20:09:40.516Z,5.4
2022-11-02T20:14:22.732Z,5.3
2022-11-02T20:19:05.057Z,5.4
2022-11-02T20:23:47.387Z,5.4
2022-11-02T20:28:29.564Z,5.4
2022-11-02T20:33:11.874Z,5.1
2022-11-02T20:37:54.201Z,5.2
2022-11-02T20:42:36.396Z,5.3
2022-11-02T20:47:18.757Z,5
2022-11-02T20:52:00.126Z,5
2022-11-02T20:56:42.340Z,4.9
2022-11-02T21:01:24.552Z,5.1
2022-11-02T21:06:06.854Z,5
2022-11-02T21:10:49.166Z,4.9
2022-11-02T21:15:31.412Z,4.6
2022-11-02T21:20:13.692Z,4.8
2022-11-02T21:24:56.006Z,4.8
2022-11-02T21:29:38.335Z,4.9
2022-11-02T21:34:20.548Z,4.8
2022-11-02T21:39:02.845Z,4.7
2022-11-02T21:43:45.147Z,4.9
2022-11-02T21:48:27.361Z,4.5
2022-11-02T21:53:08.668Z,4.6
2022-11-02T21:57:51.020Z,4.5
2022-11-02T22:02:33.314Z,4.6
2022-11-02T22:07:15.509Z,4.3
2022-11-02T22:11:57.927Z,4.4
2022-11-02T22:16:40.182Z,4.3
2022-11-02T22:21:22.341Z,4.1
2022-11-02T22:26:04.654Z,4.2
2022-11-02T22:30:46.968Z,3.8
2022-11-02T22:35:29.279Z,3.8
2022-11-02T22:40:11.531Z,3.9
2022-11-02T22:44:53.832Z,3.9
2022-11-02T22:49:36.145Z,4
2022-11-02T22:54:17.422Z,3.8
2022-11-02T22:58:59.672Z,3.8
2022-11-02T23:03:42.014Z,3.9
2022-11-02T23:08:24.270Z,3.7
2022-11-02T23:13:06.475Z,3.5
2022-11-02T23:17:48.784Z,3.8
2022-11-02T23:22:31.129Z,3.6
2022-11-02T23:27:13.309Z,3.6
2022-11-02T23:31:55.615Z,3.5
2022-11-02T23:36:37.926Z,3.6
2022-11-02T23:41:20.238Z,3.5
2022-11-02T23:50:44.833Z,3.3
2022-11-02T23:55:26.071Z,3.3
